Weather at Douentza Airport

Public forecast

Using degrees Celsius for public forecast. Weather courtesy of forecast.io.

Closest aviation weather report (METAR) to Douentza Airport

Report is more than 6 hours old.

Closest report is Mopti Ambodédjo International Airport, 73.6 nm (136.2 km) WSW.

2024/07/24 18:00 (retrieved 13 hours ago)

GAMB 241800Z 20008KT 9999 SCT030 34/23 Q1011

Closest aviation forecast (TAF) to Douentza Airport

Closest forecast is Gao Airport, 184.3 nm (341.3 km) ENE.

2024/07/25 06:03 (retrieved 51 minutes ago)

TAF TAF GAGO 250500Z 2506/2606 25012KT 6000 FEW030 PROB40 TEMPO 2515/2520 09020G35KT 3000 TSRA BLDU BKN030 FEW040CB